Time;durP1;ratioP1;P1;durP2;ratioP2;P2;SDS_P1;SDS_P2;PMS_P1;PMS_P2;Temp;Humidity;BMP_temperature;BMP_pressure;BME280_temperature;BME280_humidity;BME280_pressure;Samples;Min_cycle;Max_cycle;Signal;HPM_P1;HPM_P2
2023/08/31 06:21:59;;;;;;;;;3.33;3.33;;;;;21.52;57.29;100983.91;5054525;27;45516;-82
2023/08/31 06:24:24;;;;;;;;;2.00;2.00;;;;;21.70;57.34;100983.97;5044548;28;45517;-73
2023/08/31 06:26:50;;;;;;;;;3.67;3.67;;;;;21.90;56.33;100986.59;5050684;27;45464;-73
2023/08/31 06:29:15;;;;;;;;;3.00;3.00;;;;;22.13;55.64;100992.41;5061447;27;45756;-73
2023/08/31 06:31:40;;;;;;;;;3.00;3.00;;;;;22.33;55.24;100984.16;5045155;27;45587;-73
2023/08/31 06:34:05;;;;;;;;;4.00;3.00;;;;;22.57;54.87;100988.13;5043360;27;54600;-73
2023/08/31 06:36:31;;;;;;;;;2.00;2.00;;;;;22.74;54.47;100973.72;5043104;28;46040;-73
2023/08/31 06:38:56;;;;;;;;;3.33;3.00;;;;;22.97;53.29;100984.00;5045463;27;48372;-73
2023/08/31 06:41:21;;;;;;;;;5.00;3.00;;;;;23.19;53.19;100989.06;5077984;27;45716;-73
2023/08/31 06:43:47;;;;;;;;;2.67;2.33;;;;;23.31;52.57;100976.94;5061590;27;45498;-74
2023/08/31 06:46:12;;;;;;;;;3.67;3.67;;;;;23.54;52.57;100996.22;5047683;28;45513;-77
2023/08/31 06:48:37;;;;;;;;;3.00;3.00;;;;;23.69;52.28;100999.16;5045036;28;48461;-78
2023/08/31 06:51:03;;;;;;;;;5.00;4.00;;;;;23.86;52.02;100982.94;5040194;27;45655;-77
2023/08/31 06:53:31;;;;;;;;;5.00;4.00;;;;;24.05;51.83;100984.53;5071621;27;45434;-77
2023/08/31 06:55:56;;;;;;;;;4.00;4.00;;;;;24.20;52.03;100986.63;5063781;27;45330;-77
2023/08/31 06:58:21;;;;;;;;;5.00;4.00;;;;;24.37;51.56;100979.34;5049092;28;45749;-77
2023/08/31 07:00:48;;;;;;;;;3.00;3.00;;;;;24.53;51.42;100988.50;5045722;28;45722;-78
2023/08/31 07:03:13;;;;;;;;;4.00;4.00;;;;;24.65;51.45;100984.44;5041729;28;45442;-77
2023/08/31 07:05:42;;;;;;;;;1.67;1.67;;;;;24.80;50.89;100981.03;5057897;27;45620;-77
2023/08/31 07:08:08;;;;;;;;;2.33;2.33;;;;;24.92;50.88;100990.53;5093537;27;45457;-77
2023/08/31 07:10:36;;;;;;;;;2.00;2.00;;;;;25.03;50.89;100992.06;5042613;28;45925;-78
2023/08/31 07:13:01;;;;;;;;;3.67;3.67;;;;;25.13;50.59;100992.69;5045139;28;45315;-78
2023/08/31 07:15:27;;;;;;;;;13.00;8.67;;;;;25.20;50.04;100995.56;5052333;28;45530;-78
2023/08/31 07:17:52;;;;;;;;;5.33;5.00;;;;;25.22;49.94;100985.38;5062235;27;45804;-77
2023/08/31 07:20:17;;;;;;;;;4.67;3.00;;;;;25.36;50.00;100993.81;5071815;27;45586;-80
2023/08/31 07:22:43;;;;;;;;;3.33;3.33;;;;;25.44;49.74;100999.25;5041967;27;45772;-81
2023/08/31 07:25:08;;;;;;;;;6.67;5.33;;;;;25.52;49.80;101001.06;5040577;28;52593;-83
2023/08/31 07:27:34;;;;;;;;;9.00;5.33;;;;;25.58;49.62;100997.69;5042199;28;45912;-81
2023/08/31 07:29:59;;;;;;;;;4.67;3.67;;;;;25.65;49.35;100995.09;5038313;28;46071;-86
2023/08/31 07:32:24;;;;;;;;;8.00;5.00;;;;;25.71;49.41;100999.81;5057657;27;45720;-86
2023/08/31 07:34:50;;;;;;;;;5.67;5.00;;;;;25.77;49.20;100999.13;5055375;27;45616;-82
2023/08/31 07:37:15;;;;;;;;;4.00;4.00;;;;;25.82;49.55;101014.06;5030043;28;45468;-81
2023/08/31 07:39:40;;;;;;;;;3.67;3.67;;;;;25.87;49.09;101022.53;5027435;28;61385;-79
2023/08/31 07:42:06;;;;;;;;;5.00;4.33;;;;;25.89;49.23;101020.47;5021522;27;45553;-82
2023/08/31 07:44:31;;;;;;;;;4.33;4.33;;;;;25.96;49.50;101023.34;5054959;27;45422;-80
2023/08/31 07:46:57;;;;;;;;;3.33;3.33;;;;;25.98;49.49;101029.44;5085546;27;45906;-80
2023/08/31 07:49:22;;;;;;;;;4.00;4.00;;;;;26.00;49.27;101025.50;5027228;28;45540;-82
2023/08/31 07:51:47;;;;;;;;;5.00;4.33;;;;;26.05;49.24;101028.56;5012754;27;45854;-73
2023/08/31 07:54:22;;;;;;;;;12.33;10.00;;;;;26.07;47.59;101033.81;5030702;28;45483;-77
2023/08/31 07:56:47;;;;;;;;;4.67;4.67;;;;;26.10;47.98;101035.31;5038569;27;45963;-79
2023/08/31 07:59:13;;;;;;;;;6.33;5.33;;;;;26.13;47.80;101040.41;5057659;27;46103;-78
2023/08/31 08:01:38;;;;;;;;;6.33;4.33;;;;;26.13;48.36;101038.53;5037811;27;45372;-78
2023/08/31 08:04:03;;;;;;;;;9.33;7.33;;;;;26.16;48.46;101034.63;5024537;28;49533;-76
2023/08/31 08:06:29;;;;;;;;;6.00;5.00;;;;;26.16;48.04;101037.34;5030631;28;45634;-79
2023/08/31 08:08:54;;;;;;;;;5.00;5.00;;;;;26.24;47.80;101041.88;5024108;28;45555;-79
2023/08/31 08:11:19;;;;;;;;;5.00;3.67;;;;;26.24;48.41;101033.72;5050142;27;52416;-75
2023/08/31 08:13:45;;;;;;;;;5.67;4.00;;;;;26.29;47.90;101051.22;5053679;27;50858;-76
2023/08/31 08:16:10;;;;;;;;;4.00;4.00;;;;;26.29;47.80;101040.31;5027755;28;45581;-75
2023/08/31 08:18:35;;;;;;;;;5.67;4.33;;;;;26.35;47.65;101040.66;5027928;28;51891;-77
2023/08/31 08:21:01;;;;;;;;;8.33;5.67;;;;;26.35;48.19;101040.66;5022512;28;45477;-79
2023/08/31 08:23:26;;;;;;;;;5.33;3.67;;;;;26.39;47.67;101044.69;5051049;27;46167;-78
2023/08/31 08:25:51;;;;;;;;;3.00;3.00;;;;;26.40;47.61;101043.69;5078131;27;45420;-77
2023/08/31 08:28:16;;;;;;;;;3.00;3.00;;;;;26.41;47.80;101040.75;5029350;28;45943;-77
2023/08/31 08:30:42;;;;;;;;;4.67;4.67;;;;;26.44;47.76;101042.25;5030582;28;49270;-79
2023/08/31 08:33:08;;;;;;;;;3.00;2.67;;;;;26.44;48.13;101040.41;5029920;27;45595;-78
2023/08/31 08:35:34;;;;;;;;;3.67;3.67;;;;;26.48;47.76;101045.50;5060741;27;45405;-78
2023/08/31 08:37:59;;;;;;;;;3.00;3.00;;;;;26.46;48.15;101029.34;5024941;27;58682;-77
2023/08/31 08:40:24;;;;;;;;;5.00;3.67;;;;;26.51;48.18;101034.22;5027278;27;45370;-77
2023/08/31 08:42:53;;;;;;;;;3.33;3.33;;;;;26.53;47.95;101037.63;5029266;28;45851;-81
2023/08/31 08:45:24;;;;;;;;;5.00;3.33;;;;;26.54;47.74;101036.59;5026927;28;45583;-78
2023/08/31 08:47:51;;;;;;;;;5.00;3.00;;;;;26.55;47.91;101038.28;5026756;27;46383;-78
2023/08/31 08:50:17;;;;;;;;;4.00;3.00;;;;;26.57;48.12;101041.69;5051244;27;45442;-77
2023/08/31 08:52:44;;;;;;;;;3.00;3.00;;;;;26.58;47.58;101046.09;5058276;27;45918;-77
2023/08/31 08:55:09;;;;;;;;;3.67;3.00;;;;;26.59;47.31;101047.78;5008364;28;45790;-76
2023/08/31 08:57:35;;;;;;;;;2.00;2.00;;;;;26.57;48.08;101047.97;5025222;27;47174;-75
2023/08/31 09:00:01;;;;;;;;;2.00;2.00;;;;;26.63;47.81;101048.25;5029816;28;45427;-76
2023/08/31 09:02:26;;;;;;;;;5.67;3.00;;;;;26.62;47.50;101044.72;5045266;27;45542;-76
2023/08/31 09:04:54;;;;;;;;;2.00;2.00;;;;;26.65;47.32;101051.66;5030938;27;45485;-76
2023/08/31 09:07:21;;;;;;;;;5.00;2.00;;;;;26.66;47.67;101047.91;5027638;28;45491;-77
2023/08/31 09:09:53;;;;;;;;;2.33;2.33;;;;;26.68;47.15;101049.41;5030116;28;45496;-74
2023/08/31 09:12:22;;;;;;;;;3.33;3.00;;;;;26.66;46.43;101047.91;5030712;28;45483;-81
2023/08/31 09:15:01;;;;;;;;;2.00;2.00;;;;;26.67;46.78;101042.28;5041670;27;45394;-79
2023/08/31 09:17:36;;;;;;;;;4.00;3.00;;;;;26.69;46.51;101039.38;5069622;27;46154;-79
2023/08/31 09:20:04;;;;;;;;;3.33;3.00;;;;;26.70;46.41;101046.50;5015171;28;45542;-79
2023/08/31 09:22:29;;;;;;;;;4.00;4.00;;;;;26.71;46.44;101034.59;5026374;28;45519;-80
2023/08/31 09:24:54;;;;;;;;;3.67;3.00;;;;;26.72;46.47;101033.53;5030469;28;45712;-82
2023/08/31 09:27:20;;;;;;;;;2.00;2.00;;;;;26.74;46.74;101041.53;5027165;27;45954;-81
2023/08/31 09:29:46;;;;;;;;;6.00;3.00;;;;;26.76;47.04;101045.78;5075876;27;45623;-77
2023/08/31 09:32:18;;;;;;;;;4.00;4.00;;;;;26.77;47.16;101042.00;5033274;27;45709;-78
2023/08/31 09:34:45;;;;;;;;;4.00;4.00;;;;;26.76;46.74;101037.59;5031320;28;45557;-80
2023/08/31 09:37:10;;;;;;;;;3.00;2.00;;;;;26.78;46.87;101043.72;5032291;27;45400;-78
2023/08/31 09:39:37;;;;;;;;;2.00;2.00;;;;;26.76;46.99;101032.16;5049207;27;45390;-78
2023/08/31 09:42:03;;;;;;;;;3.00;3.00;;;;;26.81;47.21;101034.34;5053304;27;45484;-75
2023/08/31 09:44:28;;;;;;;;;8.00;5.33;;;;;26.78;45.01;101027.38;5053483;27;46123;-75
2023/08/31 09:46:54;;;;;;;;;3.33;3.33;;;;;26.76;45.75;101024.00;5017839;28;46088;-74
2023/08/31 09:49:21;;;;;;;;;3.00;2.00;;;;;26.74;46.67;101027.94;5030213;28;45576;-75
2023/08/31 09:51:49;;;;;;;;;3.33;2.00;;;;;26.69;46.20;101014.88;5029898;28;45532;-75
2023/08/31 09:54:16;;;;;;;;;1.33;1.33;;;;;26.62;46.02;101022.06;5050750;27;45485;-75
2023/08/31 09:56:43;;;;;;;;;2.00;2.00;;;;;26.60;46.20;101024.16;5038958;27;45681;-75
2023/08/31 09:59:11;;;;;;;;;2.00;2.00;;;;;26.55;46.77;101020.09;5028806;28;45389;-75
2023/08/31 10:01:36;;;;;;;;;3.00;3.00;;;;;26.51;46.68;101026.06;5029428;28;45341;-75
2023/08/31 10:04:02;;;;;;;;;4.00;4.00;;;;;26.48;46.74;101030.00;5029751;28;45421;-75
2023/08/31 10:06:29;;;;;;;;;4.33;4.00;;;;;26.44;46.57;101023.22;5024065;27;45543;-75
2023/08/31 10:08:55;;;;;;;;;3.00;3.00;;;;;26.40;46.66;101025.47;5054583;27;45441;-75
2023/08/31 10:11:22;;;;;;;;;3.00;3.00;;;;;26.37;45.91;101022.25;5025200;27;45477;-74
2023/08/31 10:13:49;;;;;;;;;3.33;3.33;;;;;26.29;46.66;101024.00;5029714;28;45406;-75
2023/08/31 10:16:15;;;;;;;;;4.00;3.00;;;;;26.28;46.12;101019.59;5025092;28;45578;-75
2023/08/31 10:18:41;;;;;;;;;7.67;3.00;;;;;26.26;46.60;101028.97;5026795;28;45469;-75
2023/08/31 10:21:07;;;;;;;;;3.00;3.00;;;;;26.25;45.92;101024.56;5028568;27;45560;-74
2023/08/31 10:23:32;;;;;;;;;4.33;4.33;;;;;26.25;45.77;101030.84;5022740;27;45576;-75
2023/08/31 10:25:57;;;;;;;;;3.33;3.33;;;;;26.26;45.93;101018.94;5021709;27;45699;-74
2023/08/31 10:28:25;;;;;;;;;3.00;3.00;;;;;26.25;45.90;101025.41;5021776;28;45872;-74
2023/08/31 10:31:08;;;;;;;;;3.00;3.00;;;;;26.27;45.86;101028.78;5023867;27;45956;-74
2023/08/31 10:33:44;;;;;;;;;4.33;4.33;;;;;26.27;45.72;101017.03;5033456;27;45718;-75
2023/08/31 10:36:12;;;;;;;;;5.00;5.00;;;;;26.28;45.67;101019.59;5071312;27;45533;-75
2023/08/31 10:38:37;;;;;;;;;3.33;2.33;;;;;26.28;45.61;101014.16;5029602;27;45377;-74
2023/08/31 10:41:05;;;;;;;;;2.00;2.00;;;;;26.28;46.22;101010.59;5028359;28;45500;-74
2023/08/31 10:43:45;;;;;;;;;3.67;3.67;;;;;26.28;45.41;101010.59;5024446;27;45501;-74
2023/08/31 10:46:32;;;;;;;;;3.00;2.00;;;;;26.29;46.12;101015.84;5026820;27;45610;-73
2023/08/31 10:49:21;;;;;;;;;3.00;3.00;;;;;26.29;46.04;101002.22;5029946;27;45454;-73
2023/08/31 10:51:55;;;;;;;;;4.00;3.00;;;;;26.33;45.25;101007.31;5021758;27;45319;-73
2023/08/31 10:54:24;;;;;;;;;5.00;4.00;;;;;26.30;45.90;101000.38;5018925;28;45504;-73
2023/08/31 10:57:08;;;;;;;;;3.00;3.00;;;;;26.28;44.96;100999.72;5018852;28;45593;-74
2023/08/31 10:59:47;;;;;;;;;6.33;4.33;;;;;26.24;44.94;100988.28;5025915;27;45750;-73
2023/08/31 11:02:37;;;;;;;;;5.00;3.67;;;;;26.24;45.22;100985.56;5034480;27;45500;-75
2023/08/31 11:05:10;;;;;;;;;4.00;3.67;;;;;26.24;45.01;100973.88;5018926;28;45790;-74
2023/08/31 11:07:37;;;;;;;;;6.00;4.00;;;;;26.23;44.67;100977.63;5023362;28;46239;-73
2023/08/31 11:10:17;;;;;;;;;2.67;2.67;;;;;26.22;44.73;100981.34;5022775;28;45511;-74
2023/08/31 11:12:45;;;;;;;;;4.00;4.00;;;;;26.22;44.05;100984.06;5029226;27;45448;-73
2023/08/31 11:15:15;;;;;;;;;2.67;2.67;;;;;26.21;43.83;100991.41;5039066;27;45427;-73
2023/08/31 11:17:41;;;;;;;;;3.00;2.67;;;;;26.20;44.31;100994.28;5024045;28;46290;-73
2023/08/31 11:20:09;;;;;;;;;2.00;2.00;;;;;26.18;44.18;100989.88;5022597;28;45836;-73
2023/08/31 11:22:39;;;;;;;;;3.00;2.00;;;;;26.16;44.04;100980.22;5021788;28;45673;-73
2023/08/31 11:25:05;;;;;;;;;3.00;3.00;;;;;26.16;43.35;100988.38;5047120;27;45559;-73
2023/08/31 11:27:30;;;;;;;;;3.33;3.33;;;;;26.16;43.77;100977.50;5055790;27;46310;-74
2023/08/31 11:29:55;;;;;;;;;2.00;2.00;;;;;26.16;43.16;100985.66;5031145;27;51168;-73
2023/08/31 11:32:24;;;;;;;;;4.67;3.00;;;;;26.15;43.32;100990.25;5026879;28;50022;-73
2023/08/31 11:34:50;;;;;;;;;2.67;2.67;;;;;26.14;43.87;100984.97;5028407;28;45480;-74
2023/08/31 11:37:17;;;;;;;;;3.00;3.00;;;;;26.15;43.51;100982.06;5025723;28;45493;-74
2023/08/31 11:39:51;;;;;;;;;2.00;2.00;;;;;26.16;43.39;100974.78;5047156;27;45460;-74
2023/08/31 11:42:19;;;;;;;;;5.00;2.00;;;;;26.14;43.86;100974.94;5030413;27;45756;-74
2023/08/31 11:44:52;;;;;;;;;3.33;3.33;;;;;26.16;43.57;100989.22;5031785;28;45452;-74
2023/08/31 11:47:20;;;;;;;;;2.00;2.00;;;;;26.19;43.70;100985.28;5027413;28;46079;-73
2023/08/31 11:49:46;;;;;;;;;3.67;3.67;;;;;26.20;43.18;100987.00;5028027;28;45598;-74
2023/08/31 11:52:13;;;;;;;;;3.33;2.33;;;;;26.22;43.60;100979.47;5052748;27;45543;-74
2023/08/31 11:54:39;;;;;;;;;3.33;3.33;;;;;26.26;43.46;100974.56;5068652;27;45755;-74
2023/08/31 11:57:08;;;;;;;;;3.00;3.00;;;;;26.27;43.58;100970.78;5030487;28;45435;-74
2023/08/31 11:59:35;;;;;;;;;3.00;2.00;;;;;26.28;43.51;100972.50;5023683;27;45564;-74
2023/08/31 12:02:00;;;;;;;;;2.00;2.00;;;;;26.29;43.71;100969.59;5031139;28;45370;-73
2023/08/31 12:04:25;;;;;;;;;4.00;3.00;;;;;26.29;42.51;100957.88;5045318;27;50361;-75
2023/08/31 12:06:53;;;;;;;;;3.00;1.67;;;;;26.26;41.84;100963.66;5067932;27;56974;-76
2023/08/31 12:09:20;;;;;;;;;2.00;1.33;;;;;26.21;42.86;100964.19;5056139;27;45589;-75
2023/08/31 12:11:51;;;;;;;;;4.00;4.00;;;;;26.21;42.55;100960.63;5029202;27;45707;-74
2023/08/31 12:14:24;;;;;;;;;4.67;2.67;;;;;26.22;43.26;100962.31;5025814;27;45639;-74
2023/08/31 12:16:51;;;;;;;;;2.00;1.33;;;;;26.20;43.07;100959.78;5044235;27;46175;-76
2023/08/31 12:19:16;;;;;;;;;4.00;2.00;;;;;26.20;43.61;100957.06;5069667;27;45454;-75
2023/08/31 12:21:46;;;;;;;;;3.00;3.00;;;;;26.24;43.27;100962.97;5055757;27;45576;-74
2023/08/31 12:24:12;;;;;;;;;2.33;2.33;;;;;26.28;43.25;100962.47;5031100;28;45479;-75
2023/08/31 12:26:38;;;;;;;;;5.00;3.00;;;;;26.30;43.76;100965.00;5027196;27;45395;-74
2023/08/31 12:29:06;;;;;;;;;5.00;3.00;;;;;26.33;43.24;100966.50;5030613;28;45514;-75
2023/08/31 12:31:32;;;;;;;;;3.00;3.00;;;;;26.33;43.70;100964.66;5056297;27;45363;-75
2023/08/31 12:33:58;;;;;;;;;2.00;2.00;;;;;26.40;43.67;100970.22;5080539;27;45712;-76
2023/08/31 12:36:24;;;;;;;;;2.00;2.00;;;;;26.42;43.21;100974.44;5030219;28;46522;-73
2023/08/31 12:38:49;;;;;;;;;5.00;4.00;;;;;26.43;43.23;100964.38;5024608;28;45373;-76
2023/08/31 12:41:14;;;;;;;;;2.33;2.33;;;;;26.43;43.20;100961.66;5028376;28;47024;-74
2023/08/31 12:43:40;;;;;;;;;4.00;4.00;;;;;26.41;43.65;100963.72;5049675;27;52649;-75
2023/08/31 12:46:05;;;;;;;;;2.33;2.33;;;;;26.45;43.95;100973.22;5054287;27;46368;-76
2023/08/31 12:48:32;;;;;;;;;3.67;2.33;;;;;26.48;44.06;100967.41;5010242;27;46167;-75
2023/08/31 12:50:58;;;;;;;;;4.00;2.67;;;;;26.50;44.02;100962.63;5033218;27;45559;-76
2023/08/31 12:53:23;;;;;;;;;2.67;2.33;;;;;26.50;43.53;100954.47;5030520;28;45452;-77
2023/08/31 12:55:49;;;;;;;;;3.00;3.00;;;;;26.53;43.98;100962.25;5037215;27;46269;-75
2023/08/31 12:58:15;;;;;;;;;2.33;2.33;;;;;26.54;43.77;100965.81;5063125;27;45556;-74
2023/08/31 13:00:43;;;;;;;;;2.00;2.00;;;;;26.52;43.30;100962.47;5051974;27;45352;-75
2023/08/31 13:03:08;;;;;;;;;2.00;2.00;;;;;26.49;44.17;100947.34;5023812;28;45530;-74
2023/08/31 13:05:33;;;;;;;;;2.00;2.00;;;;;26.50;44.03;100954.47;5031839;28;45604;-77
2023/08/31 13:07:59;;;;;;;;;2.67;2.67;;;;;26.51;43.64;100948.00;5028460;28;56599;-76
2023/08/31 13:10:24;;;;;;;;;4.33;3.00;;;;;26.55;44.34;100951.19;5054039;27;45544;-75
2023/08/31 13:12:49;;;;;;;;;1.33;1.33;;;;;26.57;43.77;100946.41;5045543;27;45783;-75
2023/08/31 13:15:15;;;;;;;;;2.00;2.00;;;;;26.55;44.55;100943.88;5027965;27;46258;-75
2023/08/31 13:17:40;;;;;;;;;2.00;2.00;;;;;26.60;44.45;100940.59;5029940;28;45736;-76
2023/08/31 13:20:06;;;;;;;;;3.67;2.67;;;;;26.62;44.42;100943.13;5028923;28;45398;-75
2023/08/31 13:22:31;;;;;;;;;2.00;2.00;;;;;26.64;43.97;100944.63;5055051;27;45810;-77
2023/08/31 13:24:56;;;;;;;;;3.33;3.33;;;;;26.59;44.42;100936.19;5069210;27;45912;-77
2023/08/31 13:27:22;;;;;;;;;3.00;3.00;;;;;26.66;44.03;100931.69;5043299;27;45635;-74
2023/08/31 13:29:47;;;;;;;;;3.00;3.00;;;;;26.65;44.37;100924.53;5027099;27;45443;-74
2023/08/31 13:32:13;;;;;;;;;1.67;1.67;;;;;26.70;44.15;100932.16;5030286;28;45404;-75
2023/08/31 13:34:39;;;;;;;;;3.00;2.67;;;;;26.71;44.14;100931.13;5035997;27;45487;-74
2023/08/31 13:37:04;;;;;;;;;2.67;2.67;;;;;26.73;44.38;100934.50;5058829;27;45590;-75
2023/08/31 13:39:30;;;;;;;;;3.33;3.00;;;;;26.75;44.29;100932.44;5078493;27;45596;-74
2023/08/31 13:41:56;;;;;;;;;2.00;2.00;;;;;26.76;44.96;100931.41;5026198;27;45612;-75
2023/08/31 13:44:21;;;;;;;;;2.33;2.33;;;;;26.77;44.79;100933.09;5029518;28;46246;-75
2023/08/31 13:46:49;;;;;;;;;1.67;1.67;;;;;26.75;44.51;100927.00;5030338;28;45547;-76
2023/08/31 13:49:15;;;;;;;;;2.00;2.00;;;;;26.79;44.81;100928.34;5039157;27;50544;-77
2023/08/31 13:51:41;;;;;;;;;4.33;3.33;;;;;26.81;44.44;100928.97;5071792;27;45487;-75
2023/08/31 13:54:07;;;;;;;;;3.67;3.67;;;;;26.82;44.96;100918.94;5028851;28;46570;-75
2023/08/31 13:56:33;;;;;;;;;3.00;3.00;;;;;26.86;44.28;100916.69;5029877;28;45542;-75
2023/08/31 13:58:58;;;;;;;;;3.00;2.00;;;;;26.87;44.98;100921.09;5028659;28;45685;-74
2023/08/31 14:01:24;;;;;;;;;2.67;2.67;;;;;26.88;44.72;100912.75;5049307;27;45696;-74
2023/08/31 14:03:50;;;;;;;;;2.00;2.00;;;;;26.89;44.50;100905.44;5062366;27;45520;-75
2023/08/31 14:06:15;;;;;;;;;2.00;2.00;;;;;26.91;44.33;100912.38;5029994;28;45527;-77
2023/08/31 14:08:41;;;;;;;;;4.67;3.67;;;;;26.92;44.48;100914.06;5027099;28;49222;-74
2023/08/31 14:11:06;;;;;;;;;1.00;1.00;;;;;26.92;44.95;100911.34;5029910;28;45468;-74
2023/08/31 14:13:32;;;;;;;;;1.33;1.33;;;;;26.93;44.65;100907.59;5031054;27;46022;-76
2023/08/31 14:15:58;;;;;;;;;2.00;2.00;;;;;26.96;44.58;100914.56;5042330;27;45493;-74
2023/08/31 14:18:25;;;;;;;;;4.00;3.00;;;;;26.94;44.80;100908.47;5042707;27;45527;-73
2023/08/31 14:20:50;;;;;;;;;2.00;2.00;;;;;26.90;44.82;100899.81;5029554;28;45666;-74
2023/08/31 14:23:16;;;;;;;;;2.00;2.00;;;;;26.86;44.62;100897.63;5039008;27;45741;-74
2023/08/31 14:25:41;;;;;;;;;1.00;1.00;;;;;26.82;44.88;100899.88;5012131;28;45603;-75
2023/08/31 14:28:06;;;;;;;;;2.33;2.33;;;;;26.77;44.28;100894.97;5038651;27;48887;-74
2023/08/31 14:30:32;;;;;;;;;2.00;2.00;;;;;26.73;45.10;100898.28;5056998;27;45579;-74
2023/08/31 14:32:57;;;;;;;;;1.00;1.00;;;;;26.69;45.13;100903.25;5027912;27;45534;-74
2023/08/31 14:35:22;;;;;;;;;1.00;1.00;;;;;26.65;45.00;100889.16;5029565;28;45477;-75
2023/08/31 14:37:48;;;;;;;;;2.00;2.00;;;;;26.60;45.31;100891.59;5022132;27;45455;-75
2023/08/31 14:40:14;;;;;;;;;2.00;2.00;;;;;26.60;45.14;100888.03;5043358;27;45655;-74
2023/08/31 14:42:40;;;;;;;;;1.33;1.33;;;;;26.59;45.24;100887.19;5062988;27;46397;-77
2023/08/31 14:45:06;;;;;;;;;2.00;1.00;;;;;26.54;45.48;100885.03;5039715;27;45569;-77
2023/08/31 14:47:31;;;;;;;;;1.00;1.00;;;;;26.50;45.00;100894.59;5031169;28;45595;-77
2023/08/31 14:49:56;;;;;;;;;2.00;1.00;;;;;26.45;45.09;100875.25;5031816;27;45395;-76
2023/08/31 14:52:22;;;;;;;;;1.00;1.00;;;;;26.46;45.23;100892.41;5031101;27;64367;-76
2023/08/31 14:54:48;;;;;;;;;1.33;1.33;;;;;26.43;45.68;100882.75;5069626;27;45409;-76
2023/08/31 14:57:13;;;;;;;;;1.00;1.00;;;;;26.40;45.31;100889.41;5075175;27;45957;-73
2023/08/31 14:59:39;;;;;;;;;0.00;0.00;;;;;26.40;45.68;100892.13;5031404;28;45559;-73
2023/08/31 15:02:05;;;;;;;;;1.00;1.00;;;;;26.41;45.59;100887.53;5030286;28;46460;-74
2023/08/31 15:04:31;;;;;;;;;1.00;1.00;;;;;26.41;45.84;100891.09;5032231;28;45380;-74
2023/08/31 15:06:57;;;;;;;;;1.33;1.33;;;;;26.41;45.20;100887.53;5044618;27;45567;-75
2023/08/31 15:09:23;;;;;;;;;0.67;0.67;;;;;26.40;45.90;100881.25;5075425;27;45451;-75
2023/08/31 15:11:49;;;;;;;;;1.67;1.00;;;;;26.40;45.46;100880.41;5028117;28;46097;-75
2023/08/31 15:14:14;;;;;;;;;0.00;0.00;;;;;26.39;45.54;100881.41;5025695;28;45627;-74
2023/08/31 15:16:40;;;;;;;;;2.00;1.00;;;;;26.36;45.86;100890.78;5019810;28;45587;-74
2023/08/31 15:19:06;;;;;;;;;3.00;1.00;;;;;26.35;46.20;100882.84;5053184;27;45734;-74
2023/08/31 15:21:32;;;;;;;;;1.33;1.33;;;;;26.35;46.18;100888.28;5048718;27;45474;-77
2023/08/31 15:23:57;;;;;;;;;3.00;1.33;;;;;26.35;46.24;100880.13;5038546;27;45614;-78
2023/08/31 15:26:22;;;;;;;;;1.67;1.67;;;;;26.35;45.81;100886.38;5030611;28;45539;-80
2023/08/31 15:28:48;;;;;;;;;1.67;1.00;;;;;26.31;46.28;100883.19;5030088;28;45817;-79
2023/08/31 15:31:14;;;;;;;;;1.00;1.00;;;;;26.30;46.34;100881.50;5031630;28;45355;-74
2023/08/31 15:33:39;;;;;;;;;3.67;2.33;;;;;26.29;46.19;100874.34;5042985;27;45448;-75
2023/08/31 15:36:06;;;;;;;;;2.00;2.00;;;;;26.32;46.43;100881.31;5031553;27;45714;-73
2023/08/31 15:38:32;;;;;;;;;6.33;1.00;;;;;26.35;46.09;100885.56;5028062;28;45368;-73
2023/08/31 15:40:58;;;;;;;;;2.00;2.00;;;;;26.34;45.77;100886.56;5035507;28;46562;-73
2023/08/31 15:43:26;;;;;;;;;2.00;2.00;;;;;26.34;46.03;100886.56;5031478;28;45621;-73
2023/08/31 15:45:51;;;;;;;;;3.00;3.00;;;;;26.33;46.09;100877.59;5067015;27;45396;-73
2023/08/31 15:48:17;;;;;;;;;1.33;1.33;;;;;26.33;45.44;100879.44;5055164;27;45776;-74
2023/08/31 15:50:42;;;;;;;;;1.00;1.00;;;;;26.33;45.49;100877.59;5028259;27;54648;-73
2023/08/31 15:53:07;;;;;;;;;2.00;2.00;;;;;26.35;45.37;100880.13;5031370;28;45386;-73
2023/08/31 15:55:32;;;;;;;;;1.00;1.00;;;;;26.36;45.46;100876.38;5032278;28;45475;-74
2023/08/31 15:57:58;;;;;;;;;0.33;0.33;;;;;26.36;45.12;100877.19;5044095;27;47934;-74
2023/08/31 16:00:23;;;;;;;;;2.00;2.00;;;;;26.36;45.59;100874.47;5086673;27;56808;-74
2023/08/31 16:02:48;;;;;;;;;1.00;1.00;;;;;26.35;45.17;100872.78;5045874;27;45421;-73
2023/08/31 16:05:14;;;;;;;;;0.33;0.33;;;;;26.31;45.20;100871.47;5031581;28;46368;-74
2023/08/31 16:07:40;;;;;;;;;1.67;1.67;;;;;26.28;45.41;100872.69;5031556;28;45642;-74
2023/08/31 16:10:07;;;;;;;;;1.00;1.00;;;;;26.26;45.68;100873.88;5031760;28;45997;-74
2023/08/31 16:12:32;;;;;;;;;2.33;2.33;;;;;26.25;45.21;100872.19;5086299;27;45567;-75
2023/08/31 16:14:58;;;;;;;;;1.00;1.00;;;;;26.26;45.36;100873.88;5022283;27;45908;-74
2023/08/31 16:17:23;;;;;;;;;1.67;1.67;;;;;26.25;45.46;100877.66;5030807;28;45580;-73
2023/08/31 16:19:52;;;;;;;;;4.33;2.67;;;;;26.27;45.40;100867.41;5030300;28;45677;-74
2023/08/31 16:22:17;;;;;;;;;6.00;2.00;;;;;26.28;45.40;100863.69;5033152;27;45604;-75
2023/08/31 16:24:44;;;;;;;;;4.00;2.00;;;;;26.29;45.88;100868.91;5029966;27;45720;-73
2023/08/31 16:27:09;;;;;;;;;1.00;1.00;;;;;26.30;45.18;100867.91;5077602;27;45451;-73
2023/08/31 16:29:34;;;;;;;;;1.33;1.33;;;;;26.29;45.92;100860.75;5029156;28;50659;-73
2023/08/31 16:32:00;;;;;;;;;1.67;1.67;;;;;26.29;45.29;100863.47;5025732;28;45653;-73
2023/08/31 16:34:25;;;;;;;;;3.33;2.00;;;;;26.30;45.46;100864.34;5021541;28;54219;-73
2023/08/31 16:36:50;;;;;;;;;1.33;1.33;;;;;26.30;45.42;100867.91;5043122;27;45371;-73
2023/08/31 16:39:17;;;;;;;;;2.00;2.00;;;;;26.25;45.75;100850.44;5038058;27;46042;-76
2023/08/31 16:41:44;;;;;;;;;1.00;1.00;;;;;26.28;45.81;100860.97;5065209;27;45573;-76
2023/08/31 16:44:09;;;;;;;;;1.00;1.00;;;;;26.33;45.17;100869.41;5027363;28;45539;-77
2023/08/31 16:46:35;;;;;;;;;4.33;2.33;;;;;26.31;45.40;100858.72;5029358;27;45499;-74
2023/08/31 16:49:00;;;;;;;;;1.00;1.00;;;;;26.33;45.36;100853.09;5029052;27;46234;-74
2023/08/31 16:51:25;;;;;;;;;1.00;1.00;;;;;26.29;45.52;100841.72;5054983;27;45427;-74
2023/08/31 16:53:51;;;;;;;;;2.00;1.33;;;;;26.28;45.71;100845.47;5061036;27;45455;-73
2023/08/31 16:56:16;;;;;;;;;2.67;2.67;;;;;26.33;45.66;100853.09;5029322;28;45459;-74
2023/08/31 16:58:41;;;;;;;;;2.00;2.00;;;;;26.31;45.82;100856.00;5025032;27;46508;-74
